Flight Track Log - Related Links

Times and Time Zones

All times are in EDT time to prevent confusion due to time zone crossing. See the UAL4422 flight status page for this flight to view local times or setup timezone preferences in your user account.

Time Position Orientation Groundspeed Altitude Reporting Facility
EDT Latitude Longitude Course Direction KTS MPH feet Rate Location/Type
Tue 06:06:00 PM 31.8475 -101.9091 111° Southeast  Level FlightAware Approximate
Tue 06:07:00 PM 31.8154 -101.8132 113° Southeast  Level FlightAware Approximate
Tue 06:07:19 PM 31.8489 -101.9131 108° East 305 351 10,100  Level Fort Worth Center
Tue 06:08:00 PM 31.7810 -101.7185 113° Southeast  Level FlightAware Approximate
Tue 06:08:19 PM 31.8147 -101.8111 112° Southeast 311 358 11,000  Level Fort Worth Center
Tue 06:09:00 PM 31.7475 -101.6235 106° East  Level FlightAware Approximate
Tue 06:09:19 PM 31.7769 -101.6969 111° Southeast 344 396 11,800  Level Fort Worth Center
Tue 06:10:00 PM 31.7229 -101.5247 106° East  Level FlightAware Approximate
Tue 06:10:19 PM 31.7392 -101.5781 110° East 374 430 13,100  Level Fort Worth Center
Tue 06:11:00 PM 31.6949 -101.4273 109° East  Level FlightAware Approximate
Tue 06:11:19 PM 31.6994 -101.4567 111° Southeast 387 445 14,600  Level Fort Worth Center
Tue 06:12:19 PM 31.6614 -101.3353 110° East 392 451 15,600 1,000 Climbing Fort Worth Center
Tue 06:13:19 PM 31.6214 -101.2094 110° East 397 457 16,600 1,050 Climbing Fort Worth Center
Tue 06:14:19 PM 31.5814 -101.0858 111° Southeast 402 463 17,700 1,050 Climbing Fort Worth Center
Tue 06:15:19 PM 31.5392 -100.9550 111° Southeast 407 468 18,700 1,050 Climbing Fort Worth Center
Tue 06:16:19 PM 31.4989 -100.8292 111° Southeast 414 476 19,800 1,150 Climbing Fort Worth Center
Tue 06:17:19 PM 31.4544 -100.6958 111° Southeast 424 488 21,000 1,100 Climbing Fort Worth Center
Tue 06:18:19 PM 31.4117 -100.5656 111° Southeast 424 488 22,000 1,100 Climbing Fort Worth Center
Tue 06:19:19 PM 31.3692 -100.4325 110° East 429 494 23,200 1,282 Climbing Fort Worth Center
Tue 06:20:16 PM 31.3222 -100.2989 112° Southeast 446 513 24,500 1,350 Climbing Houston Center
Tue 06:21:19 PM 31.2775 -100.1667 112° Southeast 440 506 25,900 1,200 Climbing Houston Center
Tue 06:22:21 PM 31.2322 -100.0342 112° Southeast 439 505 27,000 532 Climbing Houston Center
Tue 06:23:23 PM 31.1750 -99.8700 112° Southeast 455 524 27,000  Level Houston Center
Tue 06:24:25 PM 31.1264 -99.7253 111° Southeast 476 548 27,000  Level Houston Center
Tue 06:25:27 PM 31.0750 -99.5775 112° Southeast 489 563 27,000  Level Houston Center
Tue 06:26:29 PM 31.0233 -99.4292 112° Southeast 493 567 27,000  Level Houston Center
Tue 06:27:31 PM 30.9703 -99.2794 112° Southeast 497 572 27,000  Level Houston Center
Tue 06:28:34 PM 30.9136 -99.1183 112° Southeast 498 573 27,000  Level Houston Center
Tue 06:29:36 PM 30.9225 -98.9578 86° East 507 583 27,000  Level Houston Center
Tue 06:30:38 PM 31.0428 -98.8997 22° Northeast 484 557 27,000  Level Houston Center
Tue 06:31:40 PM 31.1114 -99.0000 309° West 424 488 27,000  Level Houston Center
Tue 06:32:42 PM 31.0150 -99.0889 218° Southwest 433 498 27,000  Level Houston Center
Tue 06:33:44 PM 30.9097 -99.0067 146° Southeast 474 545 27,000  Level Houston Center
Tue 06:34:46 PM 30.8383 -98.8689 121° Southeast 494 568 27,000  Level Houston Center
Tue 06:35:48 PM 30.7981 -98.7172 107° East 498 573 27,000  Level Houston Center
Tue 06:36:51 PM 30.8011 -98.5519 89° East 507 583 27,000  Level Houston Center
Tue 06:37:53 PM 30.8039 -98.3869 89° East 506 582 27,000  Level Houston Center
Tue 06:38:55 PM 30.8075 -98.2211 89° East 508 585 27,000  Level Houston Center
Tue 06:39:57 PM 30.8108 -98.0275 89° East 509 586 27,000  Level Houston Center
Tue 06:40:59 PM 30.8125 -97.8631 89° East 507 583 27,000  Level Houston Center
Tue 06:42:01 PM 30.8156 -97.6964 89° East 511 588 27,000  Level Houston Center
Tue 06:43:03 PM 30.8164 -97.5306 90° East 511 588 27,000  Level Houston Center
Tue 06:44:05 PM 30.8181 -97.3647 89° East 513 590 27,000  Level Houston Center
Tue 06:45:08 PM 30.8206 -97.1725 89° East 518 596 27,000  Level Houston Center
Tue 06:46:10 PM 30.8228 -97.0072 89° East 515 593 27,000 -339 Level Houston Center
Tue 06:47:12 PM 30.8122 -96.8444 94° East 500 575 26,300 -1,355 Descending Houston Center
Tue 06:48:14 PM 30.7606 -96.6975 112° Southeast 486 559 24,200 -2,419 Descending Houston Center
Tue 06:49:16 PM 30.7089 -96.5578 113° Southeast 471 542 21,300 -2,661 Descending Houston Center
Tue 06:50:18 PM 30.6614 -96.4269 113° Southeast 435 501 18,700 -2,323 Descending Houston Center
Tue 06:51:20 PM 30.6147 -96.2936 112° Southeast 385 443 16,500 -1,948 Descending Houston Center
Tue 06:51:35 PM 30.6036 -96.2725 121° Southeast 362 417 16,200 -1,235 Descending Houston Center
Tue 06:51:54 PM 30.5919 -96.2350 110° East 365 420 15,800 -1,532 Descending Houston Center
Tue 06:52:22 PM 30.5733 -96.1839 113° Southeast 370 426 15,000 -1,770 Descending Houston Center
Tue 06:52:55 PM 30.5489 -96.1211 114° Southeast 365 420 14,000 -1,714 Descending Houston Center
Tue 06:53:25 PM 30.5331 -96.0747 112° Southeast 365 420 13,200 -1,869 Descending Houston Center
Tue 06:53:56 PM 30.5103 -96.0139 113° Southeast 348 400 12,100 -1,645 Descending Houston Center
Tue 06:54:27 PM 30.4978 -95.9847 116° Southeast 345 397 11,500 -1,645 Descending Houston Center
Tue 06:54:58 PM 30.4747 -95.9186 112° Southeast 314 361 10,400 -1,452 Descending Houston Center
Tue 06:55:29 PM 30.4564 -95.8747 116° Southeast 311 358 10,000 -393 Descending Houston Center
Tue 06:55:59 PM 30.4283 -95.8417 135° Southeast 279 321 10,000  Level Houston Center
Tue 06:56:31 PM 30.3961 -95.8322 166° South 270 311 10,000  Level Houston Center
Tue 06:57:00 PM 30.3642 -95.8272 172° South 242 278 10,000 -290 Level Houston Center
Tue 06:57:33 PM 30.3314 -95.8222 172° South 239 275 9,700 -871 Descending Houston Center
Tue 06:58:02 PM 30.2939 -95.8161 172° South 237 273 9,100 -1,258 Descending Houston Center
Tue 06:58:35 PM 30.2667 -95.8117 172° South 234 269 8,400 -1,200 Descending Houston Center
Tue 06:58:57 PM 30.2344 -95.8086 175° South 229 264 8,000 -387 Descending Houston Center
Tue 06:59:37 PM 30.2042 -95.8044 173° South 228 262 8,000  Level Houston Center
Tue 06:59:59 PM 30.1725 -95.7989 171° South 225 259 8,000  Level Houston Center
Tue 07:00:39 PM 30.1414 -95.7953 174° South 227 261 8,000  Level Houston Center
Tue 07:01:00 PM 30.1117 -95.7986 186° South 200 230 8,000 -476 Level Houston Center
Tue 07:01:42 PM 30.0744 -95.8011 183° South 201 231 7,500 -806 Descending Houston Center
Tue 07:02:07 PM 30.0492 -95.8036 185° South 198 228 7,100 -968 Descending Houston Center
Tue 07:02:44 PM 30.0217 -95.7903 157° South 211 243 6,500 -1,161 Descending Houston Center
Tue 07:03:09 PM 30.0117 -95.7597 111° Southeast 228 262 5,900 -968 Descending Houston Center
Tue 07:03:46 PM 29.9994 -95.7225 111° Southeast 222 255 5,500 -774 Descending Houston Center
Tue 07:04:11 PM 29.9911 -95.6922 108° East 210 242 5,100 -677 Descending Houston Center
Tue 07:04:48 PM 29.9925 -95.6633 87° East 193 222 4,800 -492 Descending Houston Center
Tue 07:05:12 PM 29.9919 -95.6317 91° East 183 211 4,600 -677 Descending Houston Center
Tue 07:05:50 PM 29.9922 -95.6019 89° East 189 217 4,100 -1,091 Descending Houston Center
Tue 07:06:07 PM 29.9931 -95.5736 88° East 190 219 3,600 -1,065 Descending Houston Center
Tue 07:06:52 PM 29.9933 -95.5281 90° East 192 221 3,000 -774 Descending Houston Center
Tue 07:07:09 PM 29.9919 -95.5136 96° East 187 215 2,800 -706 Descending Houston Center

Login

Don't have an account? Register now (free) for customized features, flight alerts, and more!